5PA4 weather

Nesspor Airport
Phoenixville, Pennsylvania, United States

Public forecast

Using degrees Fahrenheit for public forecast. Weather courtesy of forecast.io.

METAR (pilot weather report)

Closest report is Heritage Field, 4.0 nm (7.4 km) NE. Retrieved 2019/09/17 04:54 UTC (48 minutes ago):

KPTW 170454Z AUTO 04003KT 10SM FEW037 BKN110 18/18 A3008 RMK AO2 SLP181 T01830183 402560156

TAF (pilot weather forecast)

Forecast is more than 12 hours old.

Closest forecast is Reading Regional Carl A Spaatz Field, 19.6 nm (36.4 km) NW. Retrieved 2019/09/16 00:30 UTC (1 day ago):

TAF KRDG 162328Z 1700/1724 06005KT P6SM OVC060 FM170600 VRB04KT P6SM SCT080 FM171500 05005KT P6SM FEW250